Time;durP1;ratioP1;P1;durP2;ratioP2;P2;SDS_P1;SDS_P2;PMS_P1;PMS_P2;Temp;Humidity;BMP_temperature;BMP_pressure;BME280_temperature;BME280_humidity;BME280_pressure;Samples;Min_cycle;Max_cycle;Signal;HPM_P1;HPM_P2
2023/10/05 00:01:05;;;;;;;;;10.67;10.67;;;;;;;;5039134;28;45278;-76
2023/10/05 00:03:31;;;;;;;;;12.00;10.67;;;;;;;;5039347;28;45257;-75
2023/10/05 00:06:13;;;;;;;;;12.00;8.00;;;;;;;;5039125;28;45412;-76
2023/10/05 00:08:40;;;;;;;;;11.67;10.00;;;;;;;;5039221;28;45413;-76
2023/10/05 00:11:06;;;;;;;;;10.33;9.33;;;;;;;;5021091;28;45254;-76
2023/10/05 00:13:33;;;;;;;;;10.33;10.00;;;;;;;;5039338;28;45158;-75
2023/10/05 00:15:59;;;;;;;;;7.67;5.67;;;;;;;;5039057;28;45337;-76
2023/10/05 00:18:25;;;;;;;;;8.00;8.00;;;;;;;;5020840;28;47597;-76
2023/10/05 00:20:53;;;;;;;;;10.00;8.00;;;;;;;;5038827;28;45321;-75
2023/10/05 00:23:19;;;;;;;;;7.33;7.33;;;;;;;;5020982;28;45399;-76
2023/10/05 00:25:44;;;;;;;;;7.33;7.33;;;;;;;;5037377;28;46065;-77
2023/10/05 00:28:11;;;;;;;;;7.33;7.00;;;;;;;;5039055;28;46266;-76
2023/10/05 00:30:37;;;;;;;;;8.33;8.00;;;;;;;;5019496;28;45444;-76
2023/10/05 00:33:07;;;;;;;;;10.00;8.33;;;;;;;;5000772;28;45314;-75
2023/10/05 00:35:33;;;;;;;;;7.00;6.00;;;;;;;;5022366;28;45494;-76
2023/10/05 00:38:04;;;;;;;;;7.00;7.00;;;;;;;;5041992;28;46099;-76
2023/10/05 00:43:07;;;;;;;;;8.67;7.67;;;;;;;;5041003;28;45285;-76
2023/10/05 00:45:33;;;;;;;;;13.00;10.00;;;;;;;;5042159;28;45487;-76
2023/10/05 00:48:09;;;;;;;;;7.33;6.67;;;;;;;;5024088;28;47168;-75
2023/10/05 00:50:35;;;;;;;;;7.33;7.33;;;;;;;;5023550;28;45293;-75
2023/10/05 00:53:01;;;;;;;;;5.00;4.67;;;;;;;;5036376;28;45384;-76
2023/10/05 00:55:26;;;;;;;;;8.00;6.67;;;;;;;;5040278;28;45320;-75
2023/10/05 00:57:53;;;;;;;;;7.00;6.00;;;;;;;;5023324;28;46971;-75
2023/10/05 01:00:28;;;;;;;;;7.33;7.33;;;;;;;;5041644;28;45328;-76
2023/10/05 01:06:01;;;;;;;;;5.67;5.67;;;;;;;;5018511;28;45725;-76
2023/10/05 01:08:27;;;;;;;;;8.00;7.00;;;;;;;;5041770;28;45470;-75
2023/10/05 01:10:54;;;;;;;;;10.33;7.67;;;;;;;;5040272;28;45763;-76
2023/10/05 01:13:30;;;;;;;;;9.00;8.00;;;;;;;;5023980;28;45295;-76
2023/10/05 01:15:55;;;;;;;;;8.33;7.00;;;;;;;;5041608;28;45285;-76
2023/10/05 01:18:25;;;;;;;;;7.67;7.67;;;;;;;;5041623;28;46115;-76
2023/10/05 01:20:50;;;;;;;;;7.00;6.67;;;;;;;;5041324;28;45304;-75
2023/10/05 01:23:15;;;;;;;;;6.33;6.33;;;;;;;;5041657;28;45346;-76
2023/10/05 01:25:40;;;;;;;;;8.33;7.67;;;;;;;;5041255;28;45313;-75
2023/10/05 01:28:07;;;;;;;;;7.67;7.67;;;;;;;;5041582;28;46245;-76
2023/10/05 01:30:37;;;;;;;;;9.67;9.67;;;;;;;;5041199;28;45259;-75
2023/10/05 01:33:03;;;;;;;;;10.00;9.67;;;;;;;;5023689;28;45481;-75
2023/10/05 01:35:28;;;;;;;;;10.67;7.00;;;;;;;;5039760;28;45310;-76
2023/10/05 01:37:53;;;;;;;;;8.33;7.00;;;;;;;;5041410;28;46308;-75
2023/10/05 01:42:45;;;;;;;;;9.33;7.67;;;;;;;;5041174;28;45329;-76
2023/10/05 01:45:15;;;;;;;;;9.00;7.67;;;;;;;;5023404;28;47369;-75
2023/10/05 01:47:43;;;;;;;;;8.33;6.33;;;;;;;;5040892;28;45385;-76
2023/10/05 01:50:14;;;;;;;;;9.00;8.00;;;;;;;;5041176;28;45391;-75
2023/10/05 01:52:40;;;;;;;;;7.00;6.33;;;;;;;;5039762;28;45302;-76
2023/10/05 01:55:08;;;;;;;;;7.67;7.67;;;;;;;;5041147;28;45374;-76
2023/10/05 01:57:33;;;;;;;;;7.67;6.00;;;;;;;;5039433;28;47655;-75
2023/10/05 01:59:59;;;;;;;;;9.00;8.67;;;;;;;;5041048;28;45360;-76
2023/10/05 02:02:28;;;;;;;;;7.33;7.00;;;;;;;;5041072;28;45368;-75
2023/10/05 02:04:53;;;;;;;;;4.00;4.00;;;;;;;;5040934;28;45572;-76
2023/10/05 02:07:19;;;;;;;;;6.00;6.00;;;;;;;;5040791;28;46207;-75
2023/10/05 02:09:44;;;;;;;;;8.67;7.67;;;;;;;;5022821;28;45224;-76
2023/10/05 02:12:10;;;;;;;;;6.00;6.00;;;;;;;;5023000;28;45262;-76
2023/10/05 02:14:39;;;;;;;;;8.67;7.00;;;;;;;;5040995;28;45315;-76
2023/10/05 02:17:06;;;;;;;;;6.33;6.33;;;;;;;;5040776;28;45489;-75
2023/10/05 02:19:31;;;;;;;;;6.33;5.67;;;;;;;;5022792;28;45344;-76
2023/10/05 02:21:59;;;;;;;;;7.00;6.00;;;;;;;;5022824;28;45360;-76
2023/10/05 02:24:30;;;;;;;;;8.00;8.00;;;;;;;;5040605;28;45343;-76
2023/10/05 02:29:23;;;;;;;;;5.33;4.33;;;;;;;;5031280;28;45237;-76
2023/10/05 02:32:22;;;;;;;;;8.67;7.33;;;;;;;;5020836;28;45259;-75
2023/10/05 02:37:24;;;;;;;;;7.67;7.00;;;;;;;;5020344;28;45341;-75
2023/10/05 02:39:49;;;;;;;;;7.33;6.00;;;;;;;;5020543;28;45317;-76
2023/10/05 02:42:16;;;;;;;;;8.67;6.00;;;;;;;;5002567;28;45374;-76
2023/10/05 02:44:45;;;;;;;;;6.33;6.33;;;;;;;;5020322;28;45686;-76
2023/10/05 02:47:13;;;;;;;;;6.67;6.67;;;;;;;;5002334;28;46763;-76
2023/10/05 02:49:43;;;;;;;;;9.67;9.33;;;;;;;;5020288;28;45357;-75
2023/10/05 02:52:12;;;;;;;;;9.33;6.33;;;;;;;;5020334;28;45273;-76
2023/10/05 02:54:39;;;;;;;;;8.33;7.33;;;;;;;;5020252;28;45418;-76
2023/10/05 02:57:07;;;;;;;;;8.00;7.00;;;;;;;;5019994;28;46214;-75
2023/10/05 02:59:34;;;;;;;;;7.67;7.67;;;;;;;;5019421;28;45427;-75
2023/10/05 03:02:06;;;;;;;;;6.33;6.00;;;;;;;;5002315;28;45295;-75
2023/10/05 03:04:47;;;;;;;;;6.00;5.00;;;;;;;;5020017;28;45321;-75
2023/10/05 03:07:17;;;;;;;;;9.00;9.00;;;;;;;;5001881;28;47741;-75
2023/10/05 03:09:43;;;;;;;;;7.00;7.00;;;;;;;;5002333;28;45310;-75
2023/10/05 03:12:09;;;;;;;;;9.00;8.00;;;;;;;;5019816;28;45270;-76
2023/10/05 03:14:34;;;;;;;;;7.67;6.67;;;;;;;;5019889;28;45537;-76
2023/10/05 03:17:04;;;;;;;;;6.33;4.67;;;;;;;;5019957;28;45461;-75
2023/10/05 03:19:29;;;;;;;;;9.33;9.33;;;;;;;;5001939;28;45402;-76
2023/10/05 03:21:58;;;;;;;;;6.33;6.00;;;;;;;;5020079;28;45308;-75
2023/10/05 03:24:24;;;;;;;;;4.00;4.00;;;;;;;;5002022;28;46388;-75
2023/10/05 03:26:51;;;;;;;;;7.67;6.33;;;;;;;;5019547;28;45528;-75
2023/10/05 03:29:17;;;;;;;;;6.67;6.33;;;;;;;;5027870;28;45310;-76
2023/10/05 03:32:03;;;;;;;;;6.00;5.00;;;;;;;;5039935;28;45309;-76
2023/10/05 03:34:30;;;;;;;;;5.33;5.33;;;;;;;;5039467;28;45329;-75
2023/10/05 03:36:55;;;;;;;;;5.33;5.33;;;;;;;;5039450;28;45335;-76
2023/10/05 03:39:23;;;;;;;;;2.33;1.33;;;;;;;;5039641;28;45419;-75
2023/10/05 03:41:48;;;;;;;;;6.67;6.00;;;;;;;;5039484;28;45245;-76
2023/10/05 03:44:16;;;;;;;;;6.33;6.33;;;;;;;;5039401;28;45465;-76
2023/10/05 03:46:47;;;;;;;;;5.33;5.00;;;;;;;;5039409;28;45340;-76
2023/10/05 03:49:17;;;;;;;;;4.00;4.00;;;;;;;;5021479;28;45496;-75
2023/10/05 03:51:49;;;;;;;;;8.67;7.33;;;;;;;;5039391;28;45376;-76
2023/10/05 03:54:14;;;;;;;;;7.00;5.33;;;;;;;;5021483;28;46161;-75
2023/10/05 03:56:42;;;;;;;;;7.33;5.67;;;;;;;;5039010;28;45203;-75
2023/10/05 03:59:08;;;;;;;;;6.33;6.33;;;;;;;;5021431;28;45399;-75
2023/10/05 04:01:34;;;;;;;;;8.67;7.33;;;;;;;;5037981;28;45764;-75
2023/10/05 04:04:04;;;;;;;;;9.00;9.00;;;;;;;;5039117;28;45535;-76
2023/10/05 04:06:30;;;;;;;;;7.33;7.33;;;;;;;;5039207;28;45389;-75
2023/10/05 04:08:57;;;;;;;;;8.00;8.00;;;;;;;;5039069;28;45346;-76
2023/10/05 04:11:23;;;;;;;;;5.33;5.33;;;;;;;;5022365;28;45413;-75
2023/10/05 04:13:50;;;;;;;;;8.33;7.67;;;;;;;;5042692;28;45363;-75
2023/10/05 04:16:21;;;;;;;;;6.00;5.00;;;;;;;;5042317;28;47513;-75
2023/10/05 04:18:47;;;;;;;;;7.67;7.00;;;;;;;;5042729;28;45337;-75
2023/10/05 04:21:12;;;;;;;;;7.00;5.67;;;;;;;;5042484;28;45324;-76
2023/10/05 04:23:37;;;;;;;;;5.67;5.67;;;;;;;;5024492;28;45749;-76
2023/10/05 04:26:08;;;;;;;;;6.00;6.00;;;;;;;;5042324;28;45309;-76
2023/10/05 04:28:34;;;;;;;;;6.00;6.00;;;;;;;;5038731;28;45852;-76
2023/10/05 04:30:59;;;;;;;;;8.00;6.33;;;;;;;;5022624;28;45158;-75
2023/10/05 04:33:29;;;;;;;;;7.00;5.00;;;;;;;;5022526;28;45471;-76
2023/10/05 04:35:54;;;;;;;;;8.00;6.33;;;;;;;;5020910;28;47245;-76
2023/10/05 04:38:25;;;;;;;;;6.67;4.67;;;;;;;;5020970;28;45695;-76
2023/10/05 04:40:50;;;;;;;;;4.00;3.67;;;;;;;;5022381;28;45315;-75
2023/10/05 04:43:17;;;;;;;;;7.33;6.00;;;;;;;;5022242;28;45313;-75
2023/10/05 04:45:42;;;;;;;;;9.00;7.00;;;;;;;;5022230;28;46143;-75
2023/10/05 04:48:12;;;;;;;;;6.33;5.33;;;;;;;;5020962;28;45594;-75
2023/10/05 04:50:37;;;;;;;;;5.00;5.00;;;;;;;;5020961;28;45365;-76
2023/10/05 04:53:09;;;;;;;;;9.00;6.33;;;;;;;;5022135;28;45382;-76
2023/10/05 04:55:41;;;;;;;;;6.00;5.33;;;;;;;;5023546;28;47148;-75
2023/10/05 04:58:24;;;;;;;;;8.00;7.33;;;;;;;;5041338;28;45298;-76
2023/10/05 05:00:54;;;;;;;;;7.67;6.33;;;;;;;;5040536;28;45385;-75
2023/10/05 05:06:04;;;;;;;;;7.67;7.67;;;;;;;;5041286;28;45321;-76
2023/10/05 05:08:31;;;;;;;;;5.33;5.33;;;;;;;;5041625;28;45394;-75
2023/10/05 05:10:58;;;;;;;;;7.00;7.00;;;;;;;;5040012;28;45344;-76
2023/10/05 05:13:23;;;;;;;;;6.33;6.33;;;;;;;;5041584;28;45290;-75
2023/10/05 05:15:49;;;;;;;;;6.33;6.33;;;;;;;;5041608;28;45907;-75
2023/10/05 05:18:14;;;;;;;;;9.33;8.33;;;;;;;;5041791;28;45284;-76
2023/10/05 05:20:40;;;;;;;;;8.00;8.00;;;;;;;;5041698;28;45494;-76
2023/10/05 05:23:07;;;;;;;;;7.00;7.00;;;;;;;;5022711;28;47147;-76
2023/10/05 05:25:32;;;;;;;;;9.00;9.00;;;;;;;;5040122;28;48343;-76
2023/10/05 05:28:01;;;;;;;;;7.00;6.67;;;;;;;;5041637;28;45403;-75
2023/10/05 05:30:26;;;;;;;;;7.00;7.00;;;;;;;;5024601;28;45364;-75
2023/10/05 05:32:53;;;;;;;;;8.00;7.33;;;;;;;;5041562;28;45435;-75
2023/10/05 05:35:18;;;;;;;;;7.00;7.00;;;;;;;;5023831;28;46594;-75
2023/10/05 05:37:44;;;;;;;;;7.00;7.00;;;;;;;;5042410;28;45159;-76
2023/10/05 05:40:12;;;;;;;;;7.33;7.00;;;;;;;;5042720;28;45274;-75
2023/10/05 05:42:39;;;;;;;;;6.00;6.00;;;;;;;;5042360;28;45274;-75
2023/10/05 05:45:09;;;;;;;;;7.67;7.67;;;;;;;;5043373;28;46232;-75
2023/10/05 05:47:35;;;;;;;;;10.00;9.33;;;;;;;;5048156;28;45270;-75
2023/10/05 05:50:01;;;;;;;;;7.33;7.00;;;;;;;;5032011;28;45187;-75
2023/10/05 05:52:26;;;;;;;;;8.33;6.33;;;;;;;;5048847;28;45475;-75
2023/10/05 05:54:51;;;;;;;;;9.67;9.33;;;;;;;;5049254;28;46162;-77
2023/10/05 05:57:20;;;;;;;;;6.33;6.33;;;;;;;;5054024;28;45300;-76
2023/10/05 05:59:45;;;;;;;;;8.33;8.33;;;;;;;;5037134;28;45377;-76
2023/10/05 06:02:10;;;;;;;;;6.33;6.33;;;;;;;;5027171;28;47583;-76
2023/10/05 06:04:37;;;;;;;;;8.33;7.00;;;;;;;;5031759;28;47320;-79
2023/10/05 06:07:11;;;;;;;;;7.00;6.67;;;;;;;;5057723;28;45452;-77
2023/10/05 06:09:37;;;;;;;;;7.33;7.33;;;;;;;;5036852;28;45441;-78
2023/10/05 06:12:02;;;;;;;;;7.33;6.67;;;;;;;;5051506;28;45296;-78
2023/10/05 06:14:28;;;;;;;;;10.00;7.33;;;;;;;;5041256;28;45365;-77
2023/10/05 06:16:53;;;;;;;;;8.67;8.67;;;;;;;;5023049;28;45266;-77
2023/10/05 06:19:18;;;;;;;;;11.33;10.67;;;;;;;;5021131;28;45270;-77
2023/10/05 06:21:45;;;;;;;;;6.00;6.00;;;;;;;;5039295;28;45729;-77
2023/10/05 06:24:10;;;;;;;;;10.33;6.67;;;;;;;;5041054;28;45312;-79
2023/10/05 06:26:37;;;;;;;;;8.33;8.33;;;;;;;;5020927;28;45368;-78
2023/10/05 06:29:04;;;;;;;;;8.00;7.00;;;;;;;;5041082;28;45344;-78
2023/10/05 06:31:29;;;;;;;;;8.00;8.00;;;;;;;;5038625;28;46282;-77
2023/10/05 06:33:55;;;;;;;;;9.33;8.67;;;;;;;;5040029;28;45321;-78
2023/10/05 06:36:20;;;;;;;;;7.33;7.33;;;;;;;;5040090;28;45280;-78
2023/10/05 06:38:45;;;;;;;;;7.00;7.00;;;;;;;;5040697;28;45375;-78
2023/10/05 06:41:11;;;;;;;;;7.00;7.00;;;;;;;;5022194;28;46208;-79
2023/10/05 06:43:36;;;;;;;;;10.00;8.00;;;;;;;;5038280;28;47436;-78
2023/10/05 06:46:17;;;;;;;;;6.67;6.00;;;;;;;;5021025;28;45475;-74
2023/10/05 06:48:42;;;;;;;;;9.33;8.67;;;;;;;;5020993;28;45274;-75
2023/10/05 06:51:08;;;;;;;;;10.00;8.00;;;;;;;;5037662;28;45344;-74
2023/10/05 06:53:33;;;;;;;;;10.00;8.00;;;;;;;;5039688;28;46251;-75
2023/10/05 06:55:58;;;;;;;;;8.67;8.67;;;;;;;;5039758;28;45378;-75
2023/10/05 06:58:23;;;;;;;;;7.67;6.67;;;;;;;;5040081;28;45364;-75
2023/10/05 07:00:48;;;;;;;;;11.00;10.33;;;;;;;;5021786;28;47402;-75
2023/10/05 07:03:13;;;;;;;;;12.00;10.00;;;;;;;;5039568;28;46544;-75
2023/10/05 07:05:39;;;;;;;;;15.67;15.00;;;;;;;;5021583;28;45290;-74
2023/10/05 07:08:05;;;;;;;;;13.00;12.00;;;;;;;;5040059;28;45320;-74
2023/10/05 07:10:31;;;;;;;;;14.00;11.00;;;;;;;;5039813;28;45289;-73
2023/10/05 07:12:56;;;;;;;;;10.67;10.67;;;;;;;;5039741;28;46118;-74
2023/10/05 07:15:21;;;;;;;;;14.33;11.67;;;;;;;;5039298;28;45627;-74
2023/10/05 07:17:48;;;;;;;;;15.00;15.00;;;;;;;;5040103;28;45378;-74
2023/10/05 07:20:13;;;;;;;;;48.50;40.50;;;;;;;;5051935;28;45015;-75
2023/10/05 07:22:42;;;;;;;;;22.33;21.33;;;;;;;;5054595;28;45329;-76
2023/10/05 07:25:09;;;;;;;;;10.33;10.33;;;;;;;;5055222;28;44641;-76
2023/10/05 07:27:34;;;;;;;;;12.00;11.33;;;;;;;;5056279;28;44670;-76
2023/10/05 07:30:03;;;;;;;;;13.00;10.33;;;;;;;;5053680;28;45360;-75
2023/10/05 07:32:28;;;;;;;;;11.67;11.67;;;;;;;;5054477;28;45364;-76
2023/10/05 07:34:54;;;;;;;;;11.67;10.33;;;;;;;;5055286;28;44878;-76
2023/10/05 07:37:19;;;;;;;;;15.00;13.33;;;;;;;;5055260;28;44639;-75
2023/10/05 07:39:45;;;;;;;;;14.00;12.33;;;;;;;;5053113;28;44816;-75
2023/10/05 07:42:10;;;;;;;;;12.00;10.33;;;;;;;;5053431;28;44972;-75
2023/10/05 07:44:39;;;;;;;;;15.00;12.33;;;;;;;;5054231;28;45217;-75
2023/10/05 07:47:05;;;;;;;;;15.00;11.33;;;;;;;;5055146;28;45237;-75
2023/10/05 07:49:34;;;;;;;;;13.00;11.67;;;;;;;;5054831;28;45277;-75
2023/10/05 07:51:59;;;;;;;;;11.67;9.33;;;;;;;;5054446;28;45091;-75
2023/10/05 07:54:24;;;;;;;;;10.67;9.67;;;;;;;;5035383;28;45983;-75
2023/10/05 07:56:52;;;;;;;;;18.33;16.00;;;;;;;;5054435;28;44646;-75
2023/10/05 07:59:17;;;;;;;;;15.00;13.00;;;;;;;;5054342;28;45143;-74
2023/10/05 08:01:43;;;;;;;;;16.67;15.67;;;;;;;;5054258;28;46140;-75
2023/10/05 08:04:11;;;;;;;;;14.00;14.00;;;;;;;;5054150;28;44737;-75
2023/10/05 08:06:36;;;;;;;;;13.33;13.00;;;;;;;;5053522;28;45518;-75
2023/10/05 08:09:05;;;;;;;;;11.00;11.00;;;;;;;;5049679;28;45254;-75
2023/10/05 08:11:31;;;;;;;;;9.67;9.67;;;;;;;;5050280;28;45210;-74
2023/10/05 08:13:57;;;;;;;;;10.67;9.00;;;;;;;;5033038;28;44677;-75
2023/10/05 08:16:22;;;;;;;;;8.67;8.33;;;;;;;;5048461;28;45421;-75
2023/10/05 08:18:48;;;;;;;;;12.67;10.67;;;;;;;;5052341;28;45266;-75
2023/10/05 08:21:14;;;;;;;;;8.33;8.33;;;;;;;;5051529;28;45412;-74
2023/10/05 08:23:39;;;;;;;;;11.33;9.00;;;;;;;;5051805;28;45312;-75
2023/10/05 08:26:07;;;;;;;;;13.00;12.67;;;;;;;;5034173;28;45347;-74
2023/10/05 08:28:32;;;;;;;;;14.33;14.33;;;;;;;;5047722;28;45429;-74
2023/10/05 08:31:07;;;;;;;;;14.33;13.00;;;;;;;;5049313;28;45277;-74
2023/10/05 08:33:35;;;;;;;;;16.33;14.67;;;;;;;;5050953;28;44737;-74
2023/10/05 08:36:06;;;;;;;;;16.33;15.00;;;;;;;;5050046;28;44900;-75
2023/10/05 08:38:35;;;;;;;;;14.00;13.33;;;;;;;;5028725;28;46152;-74
2023/10/05 08:41:06;;;;;;;;;16.00;14.00;;;;;;;;5050584;28;45425;-75
2023/10/05 08:43:31;;;;;;;;;14.00;13.67;;;;;;;;5053193;28;45447;-75
2023/10/05 08:46:01;;;;;;;;;15.00;13.67;;;;;;;;5044599;28;45221;-77
2023/10/05 08:51:04;;;;;;;;;13.33;13.33;;;;;;;;5050285;28;45240;-76
2023/10/05 08:53:30;;;;;;;;;11.00;11.00;;;;;;;;5053777;28;44859;-76
2023/10/05 08:55:58;;;;;;;;;16.33;13.33;;;;;;;;5051016;28;44806;-76
2023/10/05 08:58:23;;;;;;;;;6.33;2.67;;;;;;;;5053283;28;44769;-76
2023/10/05 09:00:48;;;;;;;;;15.67;15.67;;;;;;;;5051960;28;45423;-75
2023/10/05 09:06:20;;;;;;;;;15.33;14.67;;;;;;;;5045389;28;44844;-75
2023/10/05 09:08:53;;;;;;;;;13.33;11.00;;;;;;;;5055552;28;45395;-75
2023/10/05 09:11:20;;;;;;;;;15.00;15.00;;;;;;;;5044519;28;45332;-75
2023/10/05 09:13:46;;;;;;;;;13.00;12.00;;;;;;;;5044167;28;45229;-76
2023/10/05 09:16:15;;;;;;;;;18.33;15.00;;;;;;;;5023078;28;45376;-75
2023/10/05 09:18:50;;;;;;;;;12.67;11.00;;;;;;;;5056377;28;45383;-75
2023/10/05 09:21:19;;;;;;;;;14.00;13.00;;;;;;;;5052735;28;45200;-75
2023/10/05 09:23:44;;;;;;;;;12.00;11.33;;;;;;;;5047835;28;45062;-75
2023/10/05 09:26:33;;;;;;;;;11.33;10.33;;;;;;;;5022235;28;45479;-75
2023/10/05 09:29:17;;;;;;;;;9.67;9.67;;;;;;;;5039500;28;45495;-75
2023/10/05 09:31:45;;;;;;;;;11.67;10.33;;;;;;;;5038181;28;46294;-75
2023/10/05 09:34:14;;;;;;;;;10.67;10.67;;;;;;;;5040024;28;45526;-74
2023/10/05 09:36:39;;;;;;;;;15.33;14.67;;;;;;;;5022430;28;45325;-75
2023/10/05 09:39:07;;;;;;;;;13.00;11.67;;;;;;;;5040592;28;45627;-75
2023/10/05 09:41:35;;;;;;;;;10.33;10.00;;;;;;;;5040335;28;45357;-75
2023/10/05 09:44:05;;;;;;;;;14.67;12.33;;;;;;;;5021322;28;45748;-75
2023/10/05 09:46:33;;;;;;;;;12.33;12.33;;;;;;;;5022376;28;45300;-74
2023/10/05 09:49:01;;;;;;;;;13.00;12.67;;;;;;;;5040289;28;45563;-75
2023/10/05 09:51:26;;;;;;;;;13.33;13.00;;;;;;;;5040104;28;46140;-74
2023/10/05 09:53:52;;;;;;;;;16.00;14.00;;;;;;;;5040065;28;45510;-74
2023/10/05 09:56:20;;;;;;;;;15.33;13.00;;;;;;;;5039817;28;45764;-75
2023/10/05 09:58:45;;;;;;;;;10.00;10.00;;;;;;;;5031735;28;46997;-75
2023/10/05 10:01:10;;;;;;;;;13.67;12.00;;;;;;;;5034888;28;45512;-74
2023/10/05 10:03:37;;;;;;;;;14.00;14.00;;;;;;;;5021576;28;45929;-74
2023/10/05 10:06:09;;;;;;;;;12.00;12.00;;;;;;;;5040143;28;45474;-75
2023/10/05 10:08:50;;;;;;;;;17.00;15.33;;;;;;;;5038966;28;45320;-75
2023/10/05 10:11:20;;;;;;;;;9.33;9.33;;;;;;;;5042375;28;45327;-74
2023/10/05 10:13:52;;;;;;;;;9.00;8.33;;;;;;;;5039366;28;45592;-75
2023/10/05 10:16:21;;;;;;;;;6.67;6.67;;;;;;;;5022290;28;45519;-75
2023/10/05 10:18:57;;;;;;;;;8.33;7.67;;;;;;;;5022305;28;47166;-76
2023/10/05 10:21:25;;;;;;;;;7.67;7.67;;;;;;;;5039903;28;45437;-76
2023/10/05 10:24:00;;;;;;;;;9.33;8.00;;;;;;;;5021677;28;46006;-75
2023/10/05 10:26:25;;;;;;;;;7.00;6.33;;;;;;;;5039901;28;45525;-76
2023/10/05 10:31:29;;;;;;;;;5.00;3.00;;;;;;;;5037941;28;46167;-75
2023/10/05 10:33:55;;;;;;;;;3.67;3.67;;;;;;;;5039521;28;45212;-74
2023/10/05 10:36:22;;;;;;;;;1.25;1.25;;;;;;;;5022825;28;45326;-75
2023/10/05 10:38:51;;;;;;;;;4.00;4.00;;;;;;;;5022451;28;46338;-76
2023/10/05 10:41:17;;;;;;;;;5.67;5.00;;;;;;;;5040324;28;45750;-75
2023/10/05 10:44:03;;;;;;;;;3.00;3.00;;;;;;;;5040396;28;45408;-75
2023/10/05 10:46:29;;;;;;;;;3.75;3.25;;;;;;;;5040520;28;45233;-76
2023/10/05 10:48:57;;;;;;;;;4.00;4.00;;;;;;;;5040279;28;45254;-74
2023/10/05 10:51:23;;;;;;;;;5.25;3.50;;;;;;;;5032932;28;45567;-75
2023/10/05 10:53:55;;;;;;;;;6.67;5.67;;;;;;;;5022428;28;45233;-75
2023/10/05 10:56:21;;;;;;;;;4.67;4.67;;;;;;;;5037682;28;45363;-74
2023/10/05 10:58:56;;;;;;;;;4.00;3.00;;;;;;;;5027978;28;46467;-75
2023/10/05 11:01:41;;;;;;;;;3.25;3.00;;;;;;;;5039327;28;45319;-76
2023/10/05 11:04:15;;;;;;;;;1.75;1.75;;;;;;;;5030032;28;45347;-76
2023/10/05 11:06:48;;;;;;;;;4.00;3.00;;;;;;;;5035172;28;45569;-75
2023/10/05 11:09:14;;;;;;;;;2.75;2.00;;;;;;;;5033486;28;45510;-75
2023/10/05 11:11:40;;;;;;;;;2.00;2.00;;;;;;;;5025888;28;45357;-75
2023/10/05 11:14:15;;;;;;;;;3.00;3.00;;;;;;;;5039080;28;45833;-75
2023/10/05 11:16:43;;;;;;;;;2.00;2.00;;;;;;;;5020221;28;45435;-76
2023/10/05 11:19:13;;;;;;;;;0.00;0.00;;;;;;;;5037934;28;45541;-75
2023/10/05 11:21:45;;;;;;;;;3.00;3.00;;;;;;;;5036750;28;45436;-76
2023/10/05 11:24:10;;;;;;;;;2.50;2.50;;;;;;;;5038970;28;45753;-75
2023/10/05 11:29:31;;;;;;;;;4.33;4.33;;;;;;;;5034664;28;45438;-75
2023/10/05 11:32:09;;;;;;;;;7.00;5.67;;;;;;;;5036634;28;46070;-74
2023/10/05 11:34:39;;;;;;;;;7.00;6.00;;;;;;;;5038181;28;45538;-74
2023/10/05 11:37:15;;;;;;;;;5.33;5.00;;;;;;;;5033357;28;45336;-73
2023/10/05 11:39:40;;;;;;;;;5.00;4.33;;;;;;;;5038219;28;45682;-74
2023/10/05 11:42:05;;;;;;;;;6.75;6.00;;;;;;;;5038362;28;45567;-74
2023/10/05 11:44:31;;;;;;;;;6.00;6.00;;;;;;;;5038135;28;45416;-74
2023/10/05 11:46:59;;;;;;;;;9.00;6.67;;;;;;;;5019065;28;45483;-74
2023/10/05 11:49:30;;;;;;;;;5.33;5.33;;;;;;;;5020140;28;45464;-73
2023/10/05 11:52:00;;;;;;;;;3.25;3.25;;;;;;;;5036252;28;45401;-74
2023/10/05 11:54:25;;;;;;;;;3.33;3.00;;;;;;;;5037237;28;45295;-75
2023/10/05 11:56:53;;;;;;;;;3.67;3.67;;;;;;;;5019125;28;45346;-72
2023/10/05 11:59:26;;;;;;;;;4.33;4.33;;;;;;;;5037227;28;45611;-74
2023/10/05 12:01:51;;;;;;;;;3.67;3.67;;;;;;;;5038027;28;45479;-74
2023/10/05 12:04:19;;;;;;;;;4.67;4.00;;;;;;;;5021182;28;45316;-74
2023/10/05 12:06:45;;;;;;;;;3.00;3.00;;;;;;;;5037131;28;45387;-75
2023/10/05 12:09:27;;;;;;;;;5.00;4.25;;;;;;;;5038499;28;45325;-75
2023/10/05 12:11:54;;;;;;;;;7.00;4.00;;;;;;;;5020892;28;46327;-74
2023/10/05 12:14:19;;;;;;;;;4.33;4.33;;;;;;;;5039002;28;45379;-74
2023/10/05 12:16:44;;;;;;;;;8.00;6.33;;;;;;;;5036513;28;45348;-74
2023/10/05 12:19:21;;;;;;;;;4.00;4.00;;;;;;;;5036782;28;45319;-74
2023/10/05 12:21:46;;;;;;;;;5.50;5.50;;;;;;;;5037481;28;45776;-73
2023/10/05 12:24:11;;;;;;;;;3.33;3.33;;;;;;;;5037545;28;45426;-73
2023/10/05 12:26:39;;;;;;;;;3.33;3.33;;;;;;;;5037309;28;45479;-73
2023/10/05 12:29:04;;;;;;;;;5.67;4.00;;;;;;;;5032366;28;45312;-73
2023/10/05 12:31:29;;;;;;;;;3.00;3.00;;;;;;;;5039247;28;45258;-74
2023/10/05 12:33:54;;;;;;;;;5.50;5.50;;;;;;;;5039607;28;45238;-73
2023/10/05 12:36:22;;;;;;;;;4.00;4.00;;;;;;;;5040320;28;45487;-74
2023/10/05 12:38:48;;;;;;;;;3.50;3.50;;;;;;;;5028058;28;46323;-75
2023/10/05 12:41:13;;;;;;;;;7.00;5.33;;;;;;;;5035555;28;46314;-75
2023/10/05 12:43:42;;;;;;;;;4.00;4.00;;;;;;;;5041156;28;45540;-75
2023/10/05 12:46:11;;;;;;;;;4.33;4.33;;;;;;;;5037168;28;44791;-76
2023/10/05 12:48:39;;;;;;;;;4.00;4.00;;;;;;;;5047934;28;45352;-75
2023/10/05 12:51:08;;;;;;;;;5.25;3.50;;;;;;;;5051478;28;45331;-76
2023/10/05 12:53:33;;;;;;;;;4.00;3.75;;;;;;;;5051711;28;45419;-76
2023/10/05 12:56:01;;;;;;;;;5.00;5.00;;;;;;;;5051415;28;44704;-76
2023/10/05 12:58:27;;;;;;;;;4.67;4.33;;;;;;;;5024542;28;45231;-77
2023/10/05 13:00:52;;;;;;;;;5.00;4.00;;;;;;;;5028558;28;45253;-75
2023/10/05 13:03:17;;;;;;;;;8.00;6.67;;;;;;;;5010381;28;45987;-76
2023/10/05 13:05:49;;;;;;;;;5.00;5.00;;;;;;;;5037811;28;45274;-76
2023/10/05 13:08:16;;;;;;;;;4.00;4.00;;;;;;;;5041781;28;45497;-76
2023/10/05 13:10:43;;;;;;;;;4.00;3.67;;;;;;;;5023642;28;47530;-76
2023/10/05 13:13:17;;;;;;;;;5.00;5.00;;;;;;;;5023457;28;45302;-76
2023/10/05 13:15:43;;;;;;;;;4.00;4.00;;;;;;;;5042534;28;45336;-76
2023/10/05 13:18:20;;;;;;;;;5.00;3.00;;;;;;;;5040810;28;45521;-78
2023/10/05 13:20:47;;;;;;;;;4.00;3.33;;;;;;;;5040289;28;48143;-76
2023/10/05 13:23:13;;;;;;;;;8.00;7.00;;;;;;;;5044309;28;45472;-78
2023/10/05 13:25:39;;;;;;;;;4.00;4.00;;;;;;;;5023744;28;45468;-76
2023/10/05 13:28:05;;;;;;;;;5.00;5.00;;;;;;;;5048765;28;45435;-76
2023/10/05 13:30:40;;;;;;;;;8.00;6.67;;;;;;;;5022911;28;47981;-77
2023/10/05 13:33:13;;;;;;;;;5.33;5.00;;;;;;;;5028749;28;45307;-75
2023/10/05 13:35:38;;;;;;;;;6.00;6.00;;;;;;;;5038594;28;45454;-74
2023/10/05 13:38:07;;;;;;;;;7.00;7.00;;;;;;;;5022744;28;47326;-75
2023/10/05 13:40:34;;;;;;;;;7.33;7.00;;;;;;;;5039733;28;45379;-76
2023/10/05 13:43:00;;;;;;;;;3.00;2.33;;;;;;;;5040096;28;45359;-75
2023/10/05 13:45:25;;;;;;;;;7.00;7.00;;;;;;;;5024964;28;45388;-75
2023/10/05 13:47:52;;;;;;;;;7.00;4.67;;;;;;;;5047835;28;45373;-76
2023/10/05 13:50:18;;;;;;;;;7.00;4.33;;;;;;;;5055283;28;45388;-75
2023/10/05 13:52:45;;;;;;;;;7.33;5.00;;;;;;;;5047275;28;45451;-75
2023/10/05 13:55:14;;;;;;;;;7.00;6.00;;;;;;;;5047974;28;44623;-76
2023/10/05 13:57:39;;;;;;;;;5.33;5.00;;;;;;;;5054854;28;45325;-75
2023/10/05 14:00:06;;;;;;;;;6.67;6.00;;;;;;;;5056390;28;45367;-75
2023/10/05 14:02:32;;;;;;;;;6.00;6.00;;;;;;;;5029532;28;45412;-75
2023/10/05 14:04:57;;;;;;;;;7.67;7.00;;;;;;;;5035623;28;45370;-75
2023/10/05 14:07:23;;;;;;;;;9.00;7.00;;;;;;;;5041892;28;45408;-75
2023/10/05 14:09:49;;;;;;;;;7.33;7.33;;;;;;;;5048286;28;45394;-74
2023/10/05 14:12:17;;;;;;;;;12.00;10.00;;;;;;;;5031464;28;45506;-75
2023/10/05 14:14:42;;;;;;;;;7.00;7.00;;;;;;;;5018912;28;45423;-77
2023/10/05 14:17:08;;;;;;;;;9.00;7.67;;;;;;;;5051210;28;44769;-75
2023/10/05 14:19:33;;;;;;;;;7.33;7.33;;;;;;;;5041944;28;45346;-75
2023/10/05 14:22:03;;;;;;;;;7.67;7.67;;;;;;;;5042281;28;45598;-76
2023/10/05 14:24:32;;;;;;;;;5.00;5.00;;;;;;;;5025856;28;45424;-76
2023/10/05 14:26:58;;;;;;;;;6.33;6.33;;;;;;;;5040573;28;45334;-75
2023/10/05 14:29:26;;;;;;;;;5.67;5.67;;;;;;;;5039604;28;46021;-75
2023/10/05 14:31:56;;;;;;;;;9.00;7.00;;;;;;;;5039093;28;45484;-74
2023/10/05 14:34:21;;;;;;;;;6.67;6.67;;;;;;;;5042734;28;45273;-76
2023/10/05 14:36:52;;;;;;;;;10.00;8.00;;;;;;;;5043764;28;45259;-75
2023/10/05 14:39:23;;;;;;;;;9.00;8.00;;;;;;;;5022951;28;47412;-75
2023/10/05 14:41:54;;;;;;;;;11.67;9.67;;;;;;;;5041279;28;45410;-75
2023/10/05 14:44:19;;;;;;;;;8.33;8.00;;;;;;;;5030401;28;45425;-76
2023/10/05 14:46:49;;;;;;;;;6.00;6.00;;;;;;;;5041531;28;45759;-76
2023/10/05 14:49:15;;;;;;;;;5.33;5.33;;;;;;;;5040155;28;45392;-76
2023/10/05 14:51:41;;;;;;;;;8.00;6.33;;;;;;;;5044117;28;45225;-76
2023/10/05 14:54:09;;;;;;;;;7.00;6.33;;;;;;;;5021921;28;45574;-76
2023/10/05 14:56:35;;;;;;;;;11.00;9.00;;;;;;;;5022328;28;46032;-76
2023/10/05 14:59:00;;;;;;;;;8.00;6.33;;;;;;;;5034853;28;46133;-77
2023/10/05 15:01:25;;;;;;;;;13.33;10.33;;;;;;;;5038328;28;45129;-76
2023/10/05 15:03:50;;;;;;;;;7.33;5.67;;;;;;;;5036968;28;45338;-76
2023/10/05 15:06:18;;;;;;;;;11.67;8.33;;;;;;;;5047048;28;45987;-77